Time;durP1;ratioP1;P1;durP2;ratioP2;P2;SDS_P1;SDS_P2;PMS_P1;PMS_P2;Temp;Humidity;BMP_temperature;BMP_pressure;BME280_temperature;BME280_humidity;BME280_pressure;Samples;Min_cycle;Max_cycle;Signal;HPM_P1;HPM_P2
2022/01/11 00:01:18;;;;;;;19.97;18.20;;;17.80;64.10;;;;;;5055784;28;20444;-56
2022/01/11 00:03:44;;;;;;;21.80;19.97;;;17.70;64.30;;;;;;5055806;28;20444;-57
2022/01/11 00:06:28;;;;;;;20.73;19.07;;;17.70;64.30;;;;;;5056011;28;20539;-54
2022/01/11 00:09:00;;;;;;;20.50;19.10;;;17.70;64.60;;;;;;5055856;28;20475;-54
2022/01/11 00:11:28;;;;;;;21.10;18.97;;;17.70;64.70;;;;;;5055542;28;20480;-57
2022/01/11 00:13:55;;;;;;;22.90;20.97;;;17.60;65.00;;;;;;5055894;28;20861;-55
2022/01/11 00:16:21;;;;;;;21.13;19.27;;;17.60;65.30;;;;;;5055675;28;20467;-51
2022/01/11 00:18:48;;;;;;;22.10;20.10;;;17.60;65.60;;;;;;5055210;28;20468;-57
2022/01/11 00:21:15;;;;;;;21.37;19.77;;;17.60;66.00;;;;;;5055346;28;20444;-53
2022/01/11 00:26:27;;;;;;;20.97;19.47;;;17.50;66.50;;;;;;5055922;28;20423;-54
2022/01/11 00:28:54;;;;;;;21.33;19.67;;;17.50;66.90;;;;;;5055501;28;20468;-54
2022/01/11 00:31:20;;;;;;;20.87;19.20;;;17.40;67.00;;;;;;5055059;28;20480;-57
2022/01/11 00:33:48;;;;;;;22.20;20.20;;;17.40;67.40;;;;;;5055166;28;20455;-59
2022/01/11 00:36:15;;;;;;;20.07;18.57;;;17.40;67.70;;;;;;5055735;28;20440;-53
2022/01/11 00:38:43;;;;;;;21.07;19.47;;;17.40;67.90;;;;;;5055298;28;20472;-56
2022/01/11 00:41:11;;;;;;;21.33;19.60;;;17.30;68.10;;;;;;5054905;28;20444;-57
2022/01/11 00:43:41;;;;;;;20.07;18.43;;;17.30;68.30;;;;;;5054744;28;20471;-52
2022/01/11 00:46:09;;;;;;;21.63;19.37;;;17.30;68.60;;;;;;5055345;28;20451;-56
2022/01/11 00:48:39;;;;;;;21.23;19.53;;;17.30;69.00;;;;;;5054985;28;20476;-57
2022/01/11 00:51:06;;;;;;;20.07;18.47;;;17.20;69.10;;;;;;5055176;28;20897;-55
2022/01/11 00:53:33;;;;;;;22.83;20.87;;;17.20;69.50;;;;;;5054684;28;20447;-55
2022/01/11 00:56:00;;;;;;;21.07;19.27;;;17.10;69.80;;;;;;5054655;28;20448;-56
2022/01/11 00:58:26;;;;;;;20.40;18.90;;;17.10;70.30;;;;;;5054348;28;20468;-53
2022/01/11 01:00:55;;;;;;;21.20;19.50;;;17.10;70.60;;;;;;5054710;28;20456;-57
2022/01/11 01:03:22;;;;;;;21.13;19.53;;;17.10;70.90;;;;;;5054432;28;20440;-55
2022/01/11 01:05:49;;;;;;;20.30;18.57;;;17.10;71.20;;;;;;5054810;28;20444;-55
2022/01/11 01:08:15;;;;;;;21.03;19.47;;;17.00;71.50;;;;;;5054108;28;20475;-57
2022/01/11 01:10:46;;;;;;;21.47;19.83;;;17.00;71.60;;;;;;5054514;28;20453;-53
2022/01/11 01:13:17;;;;;;;20.00;18.33;;;17.00;71.80;;;;;;5051828;28;20483;-49
2022/01/11 01:15:46;;;;;;;20.73;19.17;;;17.00;72.10;;;;;;5052581;28;20451;-50
2022/01/11 01:18:16;;;;;;;21.97;20.33;;;17.00;72.60;;;;;;5051982;28;20478;-53
2022/01/11 01:20:43;;;;;;;19.77;18.23;;;17.00;72.70;;;;;;5053886;28;21019;-57
2022/01/11 01:23:09;;;;;;;20.80;19.30;;;16.90;73.20;;;;;;5054967;28;20454;-54
2022/01/11 01:25:36;;;;;;;19.97;18.40;;;16.90;73.50;;;;;;5054603;28;20457;-57
2022/01/11 01:28:05;;;;;;;20.10;18.50;;;16.90;73.90;;;;;;5054491;28;20464;-57
2022/01/11 01:30:31;;;;;;;20.93;19.00;;;16.90;74.20;;;;;;5054544;28;20448;-56
2022/01/11 01:32:58;;;;;;;20.47;18.87;;;16.90;74.30;;;;;;5053606;28;20533;-56
2022/01/11 01:35:31;;;;;;;19.63;18.13;;;16.90;74.50;;;;;;5034548;28;20437;-53
2022/01/11 01:37:58;;;;;;;19.33;17.83;;;16.90;74.80;;;;;;5034415;28;20559;-54
2022/01/11 01:40:26;;;;;;;20.63;18.70;;;16.80;74.90;;;;;;5034788;28;20449;-57
2022/01/11 01:42:53;;;;;;;22.20;20.20;;;16.80;75.30;;;;;;5034281;28;20445;-58
2022/01/11 01:45:23;;;;;;;18.63;17.13;;;16.80;75.60;;;;;;5054366;28;20452;-57
2022/01/11 01:47:56;;;;;;;20.53;19.00;;;16.70;75.90;;;;;;5094838;22;20495;-52
2022/01/11 01:50:23;;;;;;;19.97;18.50;;;16.80;76.20;;;;;;5062831;28;20463;-54
2022/01/11 01:52:51;;;;;;;19.30;17.70;;;16.80;76.20;;;;;;5071478;28;20870;-53
2022/01/11 01:55:18;;;;;;;20.40;18.83;;;16.80;76.50;;;;;;5070987;28;20439;-53
2022/01/11 01:57:45;;;;;;;20.53;19.13;;;16.80;76.70;;;;;;5064258;28;20464;-53
2022/01/11 02:00:12;;;;;;;19.13;17.70;;;16.80;76.90;;;;;;5051638;28;20448;-51
2022/01/11 02:02:40;;;;;;;20.00;18.37;;;16.80;77.20;;;;;;5051318;28;20448;-51
2022/01/11 02:05:07;;;;;;;19.03;17.40;;;16.70;77.20;;;;;;5034118;28;20449;-53
2022/01/11 02:07:34;;;;;;;23.23;21.43;;;16.70;77.30;;;;;;5031599;28;20543;-51
2022/01/11 02:10:04;;;;;;;18.47;17.23;;;16.70;77.50;;;;;;5031654;28;20445;-53
2022/01/11 02:12:30;;;;;;;21.17;19.47;;;16.70;77.90;;;;;;5031347;28;20484;-54
2022/01/11 02:14:57;;;;;;;21.40;19.60;;;16.70;78.10;;;;;;5046999;28;20471;-53
2022/01/11 02:17:27;;;;;;;19.80;18.30;;;16.70;78.30;;;;;;5051385;28;20804;-55
2022/01/11 02:19:55;;;;;;;20.33;18.77;;;16.70;78.30;;;;;;5051451;28;20448;-53
2022/01/11 02:22:23;;;;;;;19.80;18.40;;;16.70;78.60;;;;;;5051183;28;20924;-51
2022/01/11 02:24:50;;;;;;;18.87;17.57;;;16.70;78.60;;;;;;5036410;28;20441;-51
2022/01/11 02:27:17;;;;;;;19.50;18.10;;;16.70;78.40;;;;;;5035269;28;20464;-50
2022/01/11 02:29:44;;;;;;;20.17;18.47;;;16.70;78.80;;;;;;5035334;28;20456;-52
2022/01/11 02:32:10;;;;;;;21.10;19.40;;;16.70;78.80;;;;;;5035029;28;20492;-56
2022/01/11 02:34:38;;;;;;;20.13;18.57;;;16.60;78.90;;;;;;5051706;28;20456;-53
2022/01/11 02:37:05;;;;;;;18.57;17.40;;;16.70;79.20;;;;;;5053519;28;20539;-52
2022/01/11 02:39:34;;;;;;;19.37;17.87;;;16.70;79.40;;;;;;5055290;28;20440;-51
2022/01/11 02:42:02;;;;;;;18.57;17.37;;;16.70;79.40;;;;;;5054903;28;20541;-52
2022/01/11 02:44:29;;;;;;;18.97;17.73;;;16.70;79.40;;;;;;5039663;28;20453;-51
2022/01/11 02:46:55;;;;;;;19.17;17.43;;;16.70;79.30;;;;;;5035142;28;20447;-52
2022/01/11 02:49:22;;;;;;;18.97;17.17;;;16.70;79.60;;;;;;5035221;28;20445;-54
2022/01/11 02:51:49;;;;;;;18.37;16.97;;;16.70;79.80;;;;;;5034928;28;20485;-56
2022/01/11 02:54:16;;;;;;;19.50;17.90;;;16.70;79.90;;;;;;5048040;28;20875;-54
2022/01/11 02:56:44;;;;;;;19.87;17.90;;;16.60;80.00;;;;;;5054810;28;20451;-51
2022/01/11 02:59:11;;;;;;;18.87;17.50;;;16.60;80.30;;;;;;5054748;28;20539;-54
2022/01/11 03:01:38;;;;;;;17.53;16.40;;;16.50;80.60;;;;;;5054481;28;20519;-53
2022/01/11 03:04:05;;;;;;;19.87;18.43;;;16.60;81.10;;;;;;5042680;28;20468;-51
2022/01/11 03:06:32;;;;;;;19.33;17.93;;;16.60;80.80;;;;;;5034695;28;20456;-53
2022/01/11 03:08:59;;;;;;;19.03;17.63;;;16.60;80.90;;;;;;5034533;28;20466;-53
2022/01/11 03:11:32;;;;;;;19.30;17.90;;;16.50;81.10;;;;;;5034657;28;20934;-52
2022/01/11 03:14:01;;;;;;;18.10;16.90;;;16.60;81.40;;;;;;5044772;28;20538;-51
2022/01/11 03:16:27;;;;;;;18.03;16.73;;;16.50;81.40;;;;;;5054475;28;20812;-51
2022/01/11 03:18:54;;;;;;;20.40;18.87;;;16.50;81.60;;;;;;5054320;28;20471;-51
2022/01/11 03:21:21;;;;;;;18.33;17.10;;;16.50;82.00;;;;;;5054245;28;20447;-54
2022/01/11 03:23:48;;;;;;;19.20;17.83;;;16.50;81.90;;;;;;5045058;28;20830;-53
2022/01/11 03:26:14;;;;;;;18.53;17.20;;;16.50;82.10;;;;;;5034348;28;20452;-57
2022/01/11 03:28:41;;;;;;;19.13;17.87;;;16.50;82.30;;;;;;5034204;28;20476;-52
2022/01/11 03:31:09;;;;;;;19.07;17.63;;;16.50;82.20;;;;;;5034144;28;20949;-52
2022/01/11 03:33:36;;;;;;;20.30;18.77;;;16.50;82.20;;;;;;5040250;28;20468;-50
2022/01/11 03:36:03;;;;;;;19.30;17.80;;;16.50;82.40;;;;;;5052975;28;20504;-52
2022/01/11 03:38:31;;;;;;;17.60;16.30;;;16.50;82.80;;;;;;5035313;28;20497;-51
2022/01/11 03:40:58;;;;;;;18.47;17.27;;;16.40;82.70;;;;;;5034295;28;20449;-51
2022/01/11 03:43:26;;;;;;;19.07;17.90;;;16.40;82.90;;;;;;5033829;28;20779;-55
2022/01/11 03:45:53;;;;;;;19.33;17.80;;;16.40;83.00;;;;;;5034109;28;20444;-52
2022/01/11 03:48:21;;;;;;;20.60;18.63;;;16.40;83.50;;;;;;5050291;28;20476;-52
2022/01/11 03:50:52;;;;;;;18.90;17.50;;;16.40;83.60;;;;;;5053788;28;20450;-50
2022/01/11 03:53:21;;;;;;;19.97;18.40;;;16.40;83.40;;;;;;5053326;28;20480;-51
2022/01/11 03:56:10;;;;;;;18.47;17.23;;;16.30;83.70;;;;;;5053767;28;20823;-55
2022/01/11 03:58:36;;;;;;;19.90;18.47;;;16.30;84.50;;;;;;5034698;28;20475;-52
2022/01/11 04:01:03;;;;;;;19.10;17.40;;;16.20;84.90;;;;;;5033786;28;20452;-52
2022/01/11 04:03:31;;;;;;;19.63;18.07;;;16.20;85.20;;;;;;5033440;28;20813;-52
2022/01/11 04:05:58;;;;;;;18.80;17.63;;;16.20;85.90;;;;;;5033565;28;20449;-51
2022/01/11 04:08:25;;;;;;;20.07;18.70;;;16.20;86.50;;;;;;5050141;28;20475;-54
2022/01/11 04:10:51;;;;;;;21.60;20.00;;;16.20;86.80;;;;;;5053256;28;20452;-55
2022/01/11 04:13:19;;;;;;;18.70;17.30;;;16.20;87.10;;;;;;5052988;28;20476;-52
2022/01/11 04:15:45;;;;;;;19.10;17.80;;;16.20;87.00;;;;;;5053209;28;20510;-53
2022/01/11 04:18:12;;;;;;;20.23;18.83;;;16.20;87.50;;;;;;5037851;28;20465;-53
2022/01/11 04:20:40;;;;;;;19.83;18.20;;;16.10;87.90;;;;;;5033334;28;20934;-53
2022/01/11 04:23:11;;;;;;;19.70;18.30;;;16.20;88.90;;;;;;5033106;28;20446;-51
2022/01/11 04:25:38;;;;;;;18.67;17.37;;;16.10;88.20;;;;;;5033217;28;20477;-54
2022/01/11 04:28:05;;;;;;;18.37;17.17;;;16.10;88.40;;;;;;5046486;28;20468;-52
2022/01/11 04:30:32;;;;;;;18.10;17.10;;;16.10;88.40;;;;;;5052849;28;20444;-57
2022/01/11 04:32:58;;;;;;;19.87;18.50;;;16.10;88.50;;;;;;5052689;28;20491;-51
2022/01/11 04:35:25;;;;;;;20.40;19.00;;;16.10;88.90;;;;;;5052954;28;20812;-53
2022/01/11 04:37:53;;;;;;;20.17;18.47;;;16.10;89.10;;;;;;5052192;28;20471;-51
2022/01/11 04:40:20;;;;;;;20.43;19.03;;;16.10;89.40;;;;;;5052910;28;20445;-53
2022/01/11 04:42:47;;;;;;;19.30;17.90;;;16.10;89.50;;;;;;5052102;28;20444;-52
2022/01/11 04:45:15;;;;;;;17.87;16.77;;;16.10;89.40;;;;;;5052870;28;20436;-51
2022/01/11 04:47:42;;;;;;;19.50;18.10;;;16.10;89.50;;;;;;5045600;28;20485;-54
2022/01/11 04:50:09;;;;;;;18.20;17.07;;;16.20;89.40;;;;;;5032488;28;20485;-55
2022/01/11 04:52:36;;;;;;;19.00;17.50;;;16.10;89.20;;;;;;5032529;28;21046;-54
2022/01/11 04:55:06;;;;;;;19.50;18.07;;;16.10;89.20;;;;;;5032669;28;20448;-56
2022/01/11 04:57:33;;;;;;;19.87;18.37;;;16.10;89.60;;;;;;5040966;28;20992;-51
2022/01/11 04:59:59;;;;;;;19.70;18.20;;;16.00;89.70;;;;;;5052415;28;20451;-50
2022/01/11 05:02:26;;;;;;;19.83;18.43;;;16.10;90.10;;;;;;5051887;28;20444;-52
2022/01/11 05:04:53;;;;;;;19.77;18.17;;;16.00;90.10;;;;;;5052482;28;20539;-51
2022/01/11 05:07:20;;;;;;;20.33;18.87;;;16.00;90.20;;;;;;5045674;28;20474;-51
2022/01/11 05:09:48;;;;;;;18.63;17.33;;;16.10;90.30;;;;;;5032556;28;20449;-52
2022/01/11 05:12:16;;;;;;;21.70;20.07;;;16.00;90.40;;;;;;5031967;28;20538;-52
2022/01/11 05:14:43;;;;;;;20.50;19.10;;;16.00;90.40;;;;;;5032461;28;20449;-51
2022/01/11 05:17:09;;;;;;;20.87;19.37;;;16.00;90.50;;;;;;5036685;28;20451;-50
2022/01/11 05:19:36;;;;;;;20.17;18.77;;;16.00;90.80;;;;;;5051755;28;20444;-51
2022/01/11 05:22:04;;;;;;;19.83;18.20;;;16.00;90.80;;;;;;5047260;28;20451;-49
2022/01/11 05:24:31;;;;;;;19.83;18.43;;;16.00;91.10;;;;;;5032044;28;20456;-52
2022/01/11 05:26:58;;;;;;;19.10;17.90;;;16.10;91.00;;;;;;5031980;28;20440;-50
2022/01/11 05:29:26;;;;;;;19.70;18.40;;;16.10;91.00;;;;;;5031998;28;20449;-51
2022/01/11 05:31:52;;;;;;;20.57;19.13;;;16.10;91.10;;;;;;5031904;28;20968;-50
2022/01/11 05:34:19;;;;;;;20.63;19.03;;;16.00;91.40;;;;;;5032045;28;20477;-50
2022/01/11 05:36:46;;;;;;;20.77;19.40;;;16.10;91.40;;;;;;5032008;28;20445;-49
2022/01/11 05:39:13;;;;;;;20.57;19.23;;;16.10;91.50;;;;;;5031945;28;20465;-51
2022/01/11 05:41:39;;;;;;;18.97;17.87;;;16.10;91.50;;;;;;5031619;28;20452;-50
2022/01/11 05:44:06;;;;;;;20.37;19.00;;;16.10;91.60;;;;;;5047952;28;20855;-50
2022/01/11 05:46:35;;;;;;;20.67;19.20;;;16.10;91.70;;;;;;5051821;28;20448;-50
2022/01/11 05:49:01;;;;;;;20.53;18.97;;;16.10;91.70;;;;;;5051573;28;20467;-51
2022/01/11 05:51:28;;;;;;;19.93;18.53;;;16.40;93.30;;;;;;5042499;28;20449;-50
2022/01/11 05:53:56;;;;;;;20.97;19.57;;;17.00;92.60;;;;;;5031547;28;20488;-50
2022/01/11 05:56:23;;;;;;;19.90;18.57;;;17.50;90.30;;;;;;5031493;28;20957;-50
2022/01/11 05:58:51;;;;;;;21.33;19.93;;;17.90;88.80;;;;;;5030993;28;20468;-50
2022/01/11 06:01:17;;;;;;;22.63;20.73;;;18.10;88.40;;;;;;5038417;28;20452;-52
2022/01/11 06:03:45;;;;;;;21.20;19.60;;;18.30;87.50;;;;;;5051266;28;20952;-51
2022/01/11 06:06:12;;;;;;;21.70;20.17;;;18.40;87.80;;;;;;5051868;28;20448;-50
2022/01/11 06:08:39;;;;;;;21.83;19.93;;;18.60;90.30;;;;;;5053670;28;20522;-52
2022/01/11 06:11:07;;;;;;;21.67;19.70;;;18.70;92.10;;;;;;5046961;28;20809;-50
2022/01/11 06:13:33;;;;;;;22.93;20.93;;;18.70;94.10;;;;;;5031058;28;20520;-50
2022/01/11 06:16:00;;;;;;;23.67;21.57;;;18.80;96.80;;;;;;5031689;28;20441;-50
2022/01/11 06:18:27;;;;;;;24.67;20.90;;;18.80;99.10;;;;;;5031716;28;20989;-54
2022/01/11 06:20:55;;;;;;;23.27;20.80;;;18.90;99.90;;;;;;5034252;28;20440;-49
2022/01/11 06:23:21;;;;;;;23.80;21.80;;;18.90;99.90;;;;;;5050000;28;20443;-50
2022/01/11 06:25:48;;;;;;;23.00;20.80;;;19.00;99.90;;;;;;5032329;28;20448;-53
2022/01/11 06:28:15;;;;;;;23.80;21.37;;;19.00;99.90;;;;;;5031294;28;20476;-51
2022/01/11 06:30:42;;;;;;;22.00;20.37;;;19.10;99.90;;;;;;5047898;28;20960;-51
2022/01/11 06:33:09;;;;;;;22.30;20.70;;;19.10;99.90;;;;;;5050760;28;20476;-51
2022/01/11 06:35:35;;;;;;;23.47;21.20;;;19.00;99.90;;;;;;5051115;28;20476;-51
2022/01/11 06:38:04;;;;;;;21.97;20.33;;;19.10;99.40;;;;;;5050976;28;20467;-51
2022/01/11 06:40:31;;;;;;;24.67;22.27;;;19.00;98.70;;;;;;5050996;28;20451;-51
2022/01/11 06:42:57;;;;;;;23.57;21.30;;;19.00;97.80;;;;;;5050856;28;20452;-51
2022/01/11 06:45:24;;;;;;;21.63;20.00;;;19.00;97.20;;;;;;5051025;28;20806;-51
2022/01/11 06:47:51;;;;;;;23.50;21.43;;;19.00;96.50;;;;;;5050796;28;20487;-51
2022/01/11 06:50:18;;;;;;;22.10;20.40;;;19.10;95.80;;;;;;5050947;28;20946;-54
2022/01/11 06:52:45;;;;;;;22.97;20.90;;;19.10;95.10;;;;;;5050509;28;20448;-56
2022/01/11 06:55:14;;;;;;;21.60;19.87;;;19.00;94.60;;;;;;5050881;28;20483;-54
2022/01/11 06:57:41;;;;;;;23.83;21.83;;;18.90;94.10;;;;;;5050940;28;20499;-51
2022/01/11 07:00:10;;;;;;;22.43;20.57;;;19.00;93.60;;;;;;5051335;28;20456;-52
2022/01/11 07:02:37;;;;;;;22.97;20.67;;;19.00;92.90;;;;;;5050433;28;20440;-51
2022/01/11 07:05:04;;;;;;;21.97;20.30;;;19.00;92.50;;;;;;5050843;28;20451;-51
2022/01/11 07:07:31;;;;;;;21.90;20.00;;;18.90;92.10;;;;;;5050656;28;20475;-51
2022/01/11 07:09:58;;;;;;;20.87;19.37;;;18.90;91.70;;;;;;5051307;28;20455;-52
2022/01/11 07:12:26;;;;;;;20.23;18.70;;;18.90;91.30;;;;;;5054105;28;20452;-54
2022/01/11 07:14:53;;;;;;;20.77;19.40;;;18.90;90.80;;;;;;5054166;28;20487;-53
2022/01/11 07:17:21;;;;;;;19.43;17.97;;;18.80;90.40;;;;;;5054234;28;20844;-51
2022/01/11 07:19:48;;;;;;;21.07;19.47;;;18.80;90.10;;;;;;5054218;28;20451;-51
2022/01/11 07:22:15;;;;;;;20.13;18.47;;;18.80;89.70;;;;;;5054051;28;20448;-52
2022/01/11 07:24:41;;;;;;;18.17;16.90;;;18.70;89.20;;;;;;5053997;28;20444;-54
2022/01/11 07:27:08;;;;;;;19.77;18.17;;;18.70;88.90;;;;;;5054072;28;20444;-54
2022/01/11 07:29:36;;;;;;;19.50;18.00;;;18.60;88.30;;;;;;5054154;28;20451;-52
2022/01/11 07:32:03;;;;;;;19.30;18.00;;;18.60;87.80;;;;;;5053869;28;20925;-51
2022/01/11 07:34:30;;;;;;;19.57;18.20;;;18.50;87.30;;;;;;5053899;28;20476;-54
2022/01/11 07:36:57;;;;;;;17.90;16.80;;;18.50;87.10;;;;;;5054058;28;20933;-52
2022/01/11 07:39:23;;;;;;;18.63;17.53;;;18.50;86.60;;;;;;5053825;28;20962;-54
2022/01/11 07:41:50;;;;;;;21.97;20.40;;;18.40;86.20;;;;;;5053679;28;20444;-51
2022/01/11 07:44:17;;;;;;;19.03;17.70;;;18.40;85.90;;;;;;5053531;28;20440;-51
2022/01/11 07:46:46;;;;;;;18.60;17.30;;;18.40;85.60;;;;;;5053660;28;20448;-51
2022/01/11 07:49:13;;;;;;;18.47;17.23;;;18.30;85.40;;;;;;5054569;28;20554;-53
2022/01/11 07:51:40;;;;;;;17.20;16.20;;;18.30;85.30;;;;;;5053965;28;20452;-52
2022/01/11 07:54:07;;;;;;;18.33;17.23;;;18.30;85.10;;;;;;5054099;28;20484;-58
2022/01/11 07:56:34;;;;;;;18.30;16.97;;;18.20;84.70;;;;;;5054164;28;20787;-54
2022/01/11 07:59:00;;;;;;;18.03;16.90;;;18.20;84.50;;;;;;5053869;28;20479;-54
2022/01/11 08:01:27;;;;;;;19.73;18.43;;;18.10;84.20;;;;;;5054023;28;20455;-51
2022/01/11 08:03:55;;;;;;;17.67;16.40;;;18.10;84.30;;;;;;5054313;28;20451;-56
2022/01/11 08:06:22;;;;;;;19.73;18.30;;;18.00;84.10;;;;;;5054054;28;20448;-56
2022/01/11 08:08:48;;;;;;;19.03;17.80;;;18.00;84.00;;;;;;5053394;28;21008;-54
2022/01/11 08:11:15;;;;;;;19.10;18.10;;;18.00;83.80;;;;;;5053634;28;20855;-57
2022/01/11 08:13:42;;;;;;;17.90;16.90;;;17.90;83.70;;;;;;5053501;28;20488;-57
2022/01/11 08:16:09;;;;;;;17.23;16.23;;;17.90;83.70;;;;;;5053738;28;20455;-53
2022/01/11 08:18:35;;;;;;;18.60;17.40;;;17.80;83.50;;;;;;5053622;28;20472;-57
2022/01/11 08:21:03;;;;;;;17.37;16.23;;;17.80;83.40;;;;;;5052911;28;20445;-58
2022/01/11 08:23:30;;;;;;;16.97;16.07;;;17.80;83.50;;;;;;5052885;28;20448;-58
2022/01/11 08:25:57;;;;;;;17.00;16.10;;;17.70;83.20;;;;;;5053004;28;20913;-58
2022/01/11 08:28:25;;;;;;;18.70;17.50;;;17.70;83.20;;;;;;5054037;28;20464;-58
2022/01/11 08:30:52;;;;;;;17.70;16.60;;;17.70;83.10;;;;;;5053111;28;20937;-58
2022/01/11 08:33:19;;;;;;;18.87;17.47;;;17.60;83.00;;;;;;5053120;28;20487;-55
2022/01/11 08:35:46;;;;;;;17.70;16.60;;;17.60;82.70;;;;;;5053270;28;20450;-57
2022/01/11 08:38:14;;;;;;;18.00;16.90;;;17.60;82.60;;;;;;5053049;28;20464;-57
2022/01/11 08:40:41;;;;;;;17.90;16.80;;;17.50;82.40;;;;;;5052874;28;20448;-58
2022/01/11 08:43:08;;;;;;;16.87;15.93;;;17.50;82.30;;;;;;5052713;28;20953;-54
2022/01/11 08:45:35;;;;;;;19.70;18.40;;;17.50;82.10;;;;;;5053483;28;20884;-55
2022/01/11 08:48:03;;;;;;;18.10;16.93;;;17.40;82.10;;;;;;5052849;28;20475;-58
2022/01/11 08:50:30;;;;;;;18.03;16.87;;;17.40;82.40;;;;;;5052928;28;20444;-56
2022/01/11 08:52:58;;;;;;;19.20;18.10;;;17.40;82.60;;;;;;5052455;28;20815;-58
2022/01/11 08:55:26;;;;;;;17.27;16.37;;;17.30;82.70;;;;;;5052851;28;21080;-58
2022/01/11 08:57:53;;;;;;;16.07;15.27;;;17.30;82.70;;;;;;5052607;28;20475;-58
2022/01/11 09:00:20;;;;;;;18.33;17.23;;;17.30;82.60;;;;;;5052591;28;20443;-56
2022/01/11 09:02:47;;;;;;;18.37;17.20;;;17.20;83.30;;;;;;5052735;28;20452;-54
2022/01/11 09:05:17;;;;;;;18.07;16.87;;;17.20;82.80;;;;;;5052594;28;20454;-57
2022/01/11 09:07:44;;;;;;;18.13;17.13;;;17.10;82.90;;;;;;5052750;28;20475;-54
2022/01/11 09:10:12;;;;;;;16.87;16.03;;;17.10;83.00;;;;;;5053019;28;20451;-54
2022/01/11 09:12:40;;;;;;;17.57;16.53;;;17.10;83.00;;;;;;5052982;28;20448;-58
2022/01/11 09:15:09;;;;;;;16.27;15.47;;;17.10;82.70;;;;;;5052674;28;20488;-58
2022/01/11 09:17:36;;;;;;;17.37;16.47;;;17.20;83.10;;;;;;5052431;28;20472;-59
2022/01/11 09:20:05;;;;;;;17.57;16.53;;;17.20;82.00;;;;;;5052197;28;20447;-57
2022/01/11 09:22:32;;;;;;;18.47;17.27;;;17.20;81.70;;;;;;5052463;28;20448;-54
2022/01/11 09:24:59;;;;;;;17.30;16.50;;;17.20;81.40;;;;;;5053012;28;20456;-54
2022/01/11 09:27:26;;;;;;;16.57;15.67;;;17.10;81.20;;;;;;5052747;28;20530;-59
2022/01/11 09:29:54;;;;;;;17.07;16.20;;;17.10;81.00;;;;;;5052382;28;20459;-53
2022/01/11 09:32:20;;;;;;;19.13;17.80;;;17.10;80.80;;;;;;5051268;28;20444;-56
2022/01/11 09:34:47;;;;;;;17.97;16.80;;;17.10;80.70;;;;;;5051811;28;20495;-52
2022/01/11 09:37:14;;;;;;;18.10;17.10;;;17.10;80.60;;;;;;5052284;28;20973;-53
2022/01/11 09:39:42;;;;;;;16.67;15.83;;;17.10;80.70;;;;;;5052198;28;20936;-53
2022/01/11 09:42:09;;;;;;;17.37;16.47;;;17.00;80.90;;;;;;5051879;28;20459;-53
2022/01/11 09:44:38;;;;;;;17.53;16.63;;;17.00;81.00;;;;;;5052181;28;20446;-54
2022/01/11 09:47:07;;;;;;;16.80;15.90;;;16.90;81.00;;;;;;5051634;28;20459;-57
2022/01/11 09:49:34;;;;;;;17.30;16.40;;;16.90;81.00;;;;;;5052172;28;20956;-58
2022/01/11 09:52:06;;;;;;;16.30;15.40;;;16.90;80.90;;;;;;5051823;28;20796;-53
2022/01/11 09:54:34;;;;;;;16.60;15.50;;;16.90;80.90;;;;;;5052295;28;20480;-56
2022/01/11 09:57:01;;;;;;;18.23;17.13;;;16.90;80.90;;;;;;5052031;28;20471;-53
2022/01/11 09:59:28;;;;;;;16.80;15.73;;;16.80;80.70;;;;;;5052044;28;20471;-52
2022/01/11 10:01:55;;;;;;;16.70;15.90;;;16.90;80.80;;;;;;5051962;28;20452;-53
2022/01/11 10:04:28;;;;;;;16.47;15.70;;;16.90;80.70;;;;;;5051919;28;20448;-55
2022/01/11 10:06:57;;;;;;;17.80;16.80;;;16.90;80.60;;;;;;5051829;28;20444;-55
2022/01/11 10:09:26;;;;;;;17.33;16.37;;;16.80;80.30;;;;;;5051819;28;20817;-56
2022/01/11 10:11:55;;;;;;;18.23;17.23;;;16.80;80.20;;;;;;5051652;28;20448;-56
2022/01/11 10:14:25;;;;;;;17.47;16.57;;;16.80;80.20;;;;;;5051944;28;20480;-54
2022/01/11 10:17:06;;;;;;;17.07;16.20;;;16.80;80.20;;;;;;5052362;28;20448;-53
2022/01/11 10:19:34;;;;;;;17.83;16.93;;;16.80;80.00;;;;;;5052081;28;20451;-59
2022/01/11 10:22:04;;;;;;;17.73;16.83;;;16.80;79.80;;;;;;5051584;28;20451;-53
2022/01/11 10:24:35;;;;;;;17.07;16.17;;;16.90;79.50;;;;;;5052257;28;20443;-56
2022/01/11 10:27:04;;;;;;;17.13;16.27;;;17.00;79.00;;;;;;5052570;28;20451;-54
2022/01/11 10:29:36;;;;;;;17.63;16.73;;;17.10;78.40;;;;;;5052310;28;20451;-53
2022/01/11 10:32:14;;;;;;;16.53;15.73;;;17.20;77.90;;;;;;5051945;28;20455;-58
2022/01/11 10:34:47;;;;;;;17.50;16.70;;;17.20;77.20;;;;;;5052170;28;20488;-53
2022/01/11 10:37:14;;;;;;;16.30;15.60;;;17.20;76.70;;;;;;5052132;28;20464;-53
2022/01/11 10:39:43;;;;;;;16.37;15.63;;;17.20;76.40;;;;;;5052499;28;20444;-53
2022/01/11 10:42:25;;;;;;;18.00;17.20;;;17.20;76.20;;;;;;5051892;28;20476;-58
2022/01/11 10:44:54;;;;;;;16.80;16.00;;;17.20;75.90;;;;;;5053818;28;20435;-58
2022/01/11 10:47:24;;;;;;;16.87;16.10;;;17.20;75.70;;;;;;5055269;28;20483;-53
2022/01/11 10:49:59;;;;;;;17.37;16.57;;;17.20;75.30;;;;;;5055793;28;20827;-52
2022/01/11 10:52:27;;;;;;;17.33;16.53;;;17.20;75.10;;;;;;5055536;28;20447;-59
2022/01/11 10:54:55;;;;;;;16.03;15.43;;;17.20;75.80;;;;;;5055461;28;20491;-58
2022/01/11 10:57:26;;;;;;;16.80;16.10;;;17.20;74.90;;;;;;5055401;28;20467;-57
2022/01/11 11:00:29;;;;;;;17.93;16.97;;;17.20;74.70;;;;;;5055511;28;20902;-58
2022/01/11 11:03:00;;;;;;;16.63;15.73;;;17.20;74.40;;;;;;5055301;28;20802;-56
2022/01/11 11:05:31;;;;;;;16.90;16.10;;;17.20;74.50;;;;;;5054779;28;20457;-57
2022/01/11 11:08:08;;;;;;;16.23;15.53;;;17.20;74.40;;;;;;5054808;28;20467;-56
2022/01/11 11:10:39;;;;;;;17.20;16.50;;;17.20;74.20;;;;;;5054880;28;20459;-59
2022/01/11 11:13:07;;;;;;;17.53;16.77;;;17.20;74.10;;;;;;5054386;28;20545;-58
2022/01/11 11:15:38;;;;;;;17.43;16.70;;;17.30;73.80;;;;;;5054531;28;20480;-58
2022/01/11 11:18:06;;;;;;;18.10;17.30;;;17.30;73.20;;;;;;5054299;28;20539;-59
2022/01/11 11:20:37;;;;;;;17.37;16.57;;;17.40;72.70;;;;;;5054517;28;20440;-56
2022/01/11 11:23:04;;;;;;;19.73;18.63;;;17.30;72.40;;;;;;5051977;28;20971;-55
2022/01/11 11:25:31;;;;;;;18.30;17.40;;;17.30;72.10;;;;;;5053466;28;20467;-57
2022/01/11 11:27:58;;;;;;;17.47;16.67;;;17.20;71.80;;;;;;5037748;28;20518;-54
2022/01/11 11:30:26;;;;;;;16.47;15.77;;;17.20;72.20;;;;;;5035860;28;20456;-52
2022/01/11 11:32:54;;;;;;;19.30;17.90;;;17.20;72.40;;;;;;5047602;28;20448;-55
2022/01/11 11:35:22;;;;;;;18.83;17.77;;;17.30;78.80;;;;;;5056246;28;20537;-56
2022/01/11 11:37:59;;;;;;;18.93;17.93;;;17.30;80.30;;;;;;5054956;28;20521;-56
2022/01/11 11:40:28;;;;;;;18.27;17.37;;;17.40;83.90;;;;;;5055509;28;20450;-56
2022/01/11 11:42:59;;;;;;;18.33;17.30;;;17.40;86.60;;;;;;5035596;28;20453;-55
2022/01/11 11:45:28;;;;;;;18.63;17.53;;;17.40;86.40;;;;;;5035863;28;20858;-53
2022/01/11 11:48:04;;;;;;;18.97;17.90;;;17.50;86.50;;;;;;5034244;28;20485;-53
2022/01/11 11:50:30;;;;;;;19.67;18.37;;;17.70;85.60;;;;;;5034833;28;20444;-56
2022/01/11 11:52:58;;;;;;;19.43;18.43;;;17.80;84.30;;;;;;5053099;28;20841;-58
2022/01/11 11:55:27;;;;;;;17.80;17.00;;;17.90;83.50;;;;;;5039448;28;20551;-57
2022/01/11 11:57:56;;;;;;;17.07;16.37;;;18.00;82.90;;;;;;5033633;28;20473;-57
2022/01/11 12:00:24;;;;;;;18.67;17.57;;;18.10;81.90;;;;;;5014091;28;20446;-57
2022/01/11 12:02:53;;;;;;;19.30;18.30;;;18.10;81.30;;;;;;5018692;28;21031;-57
2022/01/11 12:05:36;;;;;;;19.30;18.30;;;18.20;80.50;;;;;;5034195;28;20437;-54
2022/01/11 12:08:30;;;;;;;20.43;19.00;;;18.50;79.50;;;;;;5034370;28;20476;-56
2022/01/11 12:10:58;;;;;;;19.80;18.80;;;18.80;77.80;;;;;;5036373;28;20928;-55
2022/01/11 12:13:44;;;;;;;19.43;18.40;;;19.20;74.90;;;;;;5037363;28;20452;-54
2022/01/11 12:16:38;;;;;;;19.90;18.70;;;19.30;72.80;;;;;;5051903;28;20476;-57
2022/01/11 12:19:08;;;;;;;19.80;18.60;;;19.40;71.20;;;;;;5053295;28;20534;-57
2022/01/11 12:21:42;;;;;;;18.30;17.30;;;19.30;70.40;;;;;;5053104;28;20941;-58
2022/01/11 12:24:11;;;;;;;18.70;17.60;;;19.40;69.70;;;;;;5053205;28;20454;-59
2022/01/11 12:26:38;;;;;;;18.10;17.20;;;19.50;68.70;;;;;;5053541;28;20444;-54
2022/01/11 12:29:26;;;;;;;18.57;17.60;;;19.60;67.50;;;;;;5052936;28;20460;-58
2022/01/11 12:31:56;;;;;;;18.40;17.50;;;19.70;66.20;;;;;;5052893;28;20455;-57
2022/01/11 12:34:48;;;;;;;18.93;17.83;;;19.80;64.90;;;;;;5052945;28;20455;-59
2022/01/11 12:37:22;;;;;;;18.13;17.23;;;19.90;63.50;;;;;;5052921;28;20538;-56